sim
Sign-in with your pilot id or email,
or register
Callsign
Passwort

Schedule Details

Flight Number: DLH2669 (2)
Departure: Malaga Costa Del Sol Airport (LEMG) at 17:25
Arrival: Munich Airport (EDDM) at 20:20
Route: Lufthansa Passenger Schedule. Enter filed route here before submitting Pirep.

Weather Information
Getting current METAR information for LEMG 190530Z 28004KT 9999 FEW060 17/16 Q1017 NOSIG
Getting current METAR information for EDDM 190550Z VRB01KT CAVOK 05/04 Q1020 NOSIG

Schedule Frequency

Route Map